NCAR-RAP Real-Time Weather Data

Output produced by METARs form (08 May 2021  00:43 UTC)
found at http://weather.rap.ucar.edu/surface/
 
KNEW 072353Z 35009KT 10SM CLR 28/14 A3007 RMK AO2 SLP175 T02780144 10289 20250 56010
KNEW 072253Z 29004KT 10SM CLR 27/13 A3007 RMK AO2 SLP177 T02720128
KNEW 072154Z 27007KT 10SM CLR 27/14 A3008 RMK AO2 SLP180 T02720144
KNEW 072053Z AUTO 26006KT 10SM CLR 27/12 A3010 RMK AO2 SLP186 T02720122 58021
KNEW 071953Z 27009KT 10SM CLR 27/14 A3013 RMK AO2 SLP196 T02720139
KNEW 071853Z 29009KT 10SM CLR 26/15 A3015 RMK AO2 SLP202 T02610150
KNEW 071753Z 30007KT 10SM CLR 25/15 A3016 RMK AO2 SLP207 T02500150 10250 20200 58009
KNEW 071653Z 30006KT 10SM CLR 24/15 A3019 RMK AO2 SLP217 T02440150
KNEW 071553Z 32007KT 10SM CLR 24/15 A3019 RMK AO2 SLP218 T02390150
KNEW 071453Z 32012KT 10SM CLR 24/15 A3019 RMK AO2 SLP216 T02390150 51018
KNEW 071353Z 32015KT 10SM CLR 24/14 A3018 RMK AO2 SLP212 T02440139
KNEW 071253Z 30007KT 10SM CLR 24/16 A3016 RMK AO2 SLP206 T02390156
KNEW 071153Z 30004KT 10SM CLR 20/15 A3014 RMK AO2 SLP198 T02000150 10239 20183 53012
KNEW 071053Z 26003KT 10SM CLR 21/16 A3011 RMK AO2 SLP190 T02110156
KNEW 070953Z 00000KT 10SM CLR 19/14 A3010 RMK AO2 SLP187 T01940139